Accueil
METAR-TAF:

METAR-TAF

Aéroports :

Aéroport de Johannesbourg-Lanséria

Lanseria, Afrique du Sud

latitude: 25-56S, longitude: 027-56E, altitude: 1377 m

Observation

Le bulletin a été fait il y a 37 minutes, à 08:31 UTC
Vent 2 kt de direction variable
Température 19°C
Humidité 34%
Pression 1028 hPa
Visibilité 10 km ou plus
pas de nuages en-dessous de 1500 mètres et pas de cumulonimbus.

METAR: FALA 300831Z VRB02KT CAVOK 19/03 Q1028 NOSIG

Heure: 11:08 (09:08 UTC)

Prévision

Le bulletin a été fait il y a 5 heures et 8 minutes, à 04:00 UTC
Prévision valable du 30 à 06 UTC au 31 à 06 UTC
Vent 3 kt de direction variable
Visibilité 10 km ou plus
pas de nuages en-dessous de 1500 mètres et pas de cumulonimbus.

TAF: FALA 300400Z 3006/3106 VRB03KT CAVOK TX23/3013Z TN08/3104Z

Observations et prévisions météorologiques de plus de 4000 aéroports (messages METAR et TAF).

Les stations disponibles sont représentées par des disques jaunes et rouges sur la carte.

Passer la souris dessus pour voir le nom de la station.

Cliquer dessus pour voir les observations et prévisions météorologiques.

Pour changer de carte: cliquez sur les boutons verts avec une croix noire pour zoomer, sur le bouton vert avec un tiret pour effectuer un zoom arrière, ou sur les flèches vertes pour les cartes adjacentes.


METAR-TAF: